createdAt,value
2022-11-29T00:00:29.275Z,15.20
2022-11-29T00:03:20.232Z,12.60
2022-11-29T00:06:14.496Z,5.70
2022-11-29T00:09:08.313Z,10.10
2022-11-29T00:12:13.686Z,10.60
2022-11-29T00:15:00.542Z,16.30
2022-11-29T00:17:48.279Z,13.40
2022-11-29T00:20:35.452Z,14.60
2022-11-29T00:23:22.467Z,11.20
2022-11-29T00:26:09.230Z,14.50
2022-11-29T00:28:55.886Z,10.10
2022-11-29T00:31:42.902Z,12.80
2022-11-29T00:34:29.255Z,14.80
2022-11-29T00:37:15.734Z,6.20
2022-11-29T00:40:02.351Z,14.90
2022-11-29T00:42:49.010Z,14.80
2022-11-29T00:45:35.563Z,9.70
2022-11-29T00:48:22.226Z,13.10
2022-11-29T00:51:09.136Z,13.60
2022-11-29T00:53:55.941Z,12.30
2022-11-29T00:56:42.335Z,15.00
2022-11-29T00:59:30.443Z,6.90
2022-11-29T01:02:17.339Z,14.60
2022-11-29T01:05:04.823Z,16.20
2022-11-29T01:07:51.804Z,4.60
2022-11-29T01:10:38.654Z,14.80
2022-11-29T01:13:25.157Z,14.70
2022-11-29T01:16:11.963Z,12.40
2022-11-29T01:18:58.779Z,15.50
2022-11-29T01:21:45.707Z,13.30
2022-11-29T01:24:32.383Z,14.70
2022-11-29T01:27:18.917Z,13.10
2022-11-29T01:30:06.992Z,12.40
2022-11-29T01:32:53.837Z,12.90
2022-11-29T01:35:40.232Z,15.90
2022-11-29T01:38:26.957Z,15.20
2022-11-29T01:41:16.958Z,15.20
2022-11-29T01:44:07.552Z,11.90
2022-11-29T01:46:54.484Z,16.40
2022-11-29T01:49:45.480Z,15.80
2022-11-29T01:52:32.375Z,14.10
2022-11-29T01:55:18.890Z,14.40
2022-11-29T01:58:06.673Z,15.20
2022-11-29T02:00:53.282Z,15.20
2022-11-29T02:03:39.987Z,14.00
2022-11-29T02:06:27.499Z,12.40
2022-11-29T02:09:21.950Z,13.90
2022-11-29T02:12:33.085Z,11.80
2022-11-29T02:15:33.004Z,13.80
2022-11-29T02:18:23.460Z,14.50
2022-11-29T02:21:39.436Z,14.10
2022-11-29T02:24:45.243Z,13.30
2022-11-29T02:27:51.054Z,10.80
2022-11-29T02:31:22.305Z,13.80
2022-11-29T02:34:24.065Z,13.40
2022-11-29T02:37:46.521Z,12.40
2022-11-29T02:40:43.652Z,12.20
2022-11-29T02:43:52.288Z,10.00
2022-11-29T02:46:57.589Z,14.00
2022-11-29T02:50:21.801Z,7.20
2022-11-29T02:53:26.819Z,7.20
2022-11-29T02:56:22.470Z,9.50
2022-11-29T02:59:47.173Z,11.00
2022-11-29T03:02:45.912Z,13.30
2022-11-29T03:05:38.716Z,10.00
2022-11-29T03:08:34.143Z,12.10
2022-11-29T03:11:26.972Z,13.40
2022-11-29T03:14:27.204Z,12.70
2022-11-29T03:17:32.095Z,9.20
2022-11-29T03:20:29.492Z,12.10
2022-11-29T03:23:21.813Z,11.50
2022-11-29T03:26:14.962Z,12.80
2022-11-29T03:29:13.796Z,12.50
2022-11-29T03:32:05.368Z,12.60
2022-11-29T03:35:08.041Z,11.70
2022-11-29T03:37:59.715Z,12.10
2022-11-29T03:41:29.229Z,13.00
2022-11-29T03:44:20.511Z,12.20
2022-11-29T03:47:12.985Z,11.90
2022-11-29T03:50:07.184Z,12.50
2022-11-29T03:52:54.974Z,10.10
2022-11-29T03:55:56.969Z,12.20
2022-11-29T03:58:55.760Z,11.70
2022-11-29T04:02:07.352Z,10.30
2022-11-29T04:05:12.214Z,10.50
2022-11-29T04:08:16.701Z,12.20
2022-11-29T04:11:31.272Z,4.60
2022-11-29T04:14:39.894Z,11.50
2022-11-29T04:18:06.958Z,11.70
2022-11-29T04:20:56.930Z,8.10
2022-11-29T04:24:08.014Z,13.10
2022-11-29T04:27:13.710Z,11.20
2022-11-29T04:30:20.649Z,8.10
2022-11-29T04:33:22.410Z,11.00
2022-11-29T04:36:13.014Z,11.60
2022-11-29T04:39:20.832Z,9.60
2022-11-29T04:42:43.970Z,5.70
2022-11-29T04:45:41.229Z,11.50
2022-11-29T04:48:38.897Z,10.20
2022-11-29T04:51:37.696Z,7.90
2022-11-29T04:54:54.982Z,8.70
2022-11-29T04:58:07.437Z,7.60
2022-11-29T05:01:12.760Z,9.70
2022-11-29T05:04:08.907Z,8.40
2022-11-29T05:07:01.749Z,11.40
2022-11-29T05:10:00.533Z,8.10
2022-11-29T05:13:18.690Z,9.40
2022-11-29T05:16:32.970Z,11.30
2022-11-29T05:19:41.622Z,8.80
2022-11-29T05:22:33.343Z,11.10
2022-11-29T05:25:31.688Z,8.70
2022-11-29T05:28:37.394Z,11.30
2022-11-29T05:31:30.005Z,12.20
2022-11-29T05:34:22.106Z,11.90
2022-11-29T05:37:11.777Z,10.90
2022-11-29T05:40:26.254Z,8.80
2022-11-29T05:43:22.648Z,11.50
2022-11-29T05:49:23.126Z,6.70
2022-11-29T05:52:20.201Z,9.90
2022-11-29T05:55:22.095Z,11.20
2022-11-29T05:58:18.784Z,4.40
2022-11-29T06:01:16.490Z,4.70
2022-11-29T06:04:14.711Z,5.70
2022-11-29T06:07:15.095Z,9.20
2022-11-29T06:10:11.123Z,8.40
2022-11-29T06:13:08.541Z,11.20
2022-11-29T06:16:08.312Z,8.50
2022-11-29T06:19:32.593Z,11.40
2022-11-29T06:22:37.253Z,11.60
2022-11-29T06:25:51.117Z,9.10
2022-11-29T06:29:06.815Z,10.00
2022-11-29T06:32:05.391Z,7.60
2022-11-29T06:34:56.679Z,6.60
2022-11-29T06:37:45.260Z,9.10
2022-11-29T06:40:33.217Z,9.70
2022-11-29T06:43:20.015Z,11.20
2022-11-29T06:46:18.636Z,6.10
2022-11-29T06:49:27.120Z,12.30
2022-11-29T06:52:34.334Z,7.40
2022-11-29T06:55:23.814Z,10.20
2022-11-29T06:58:20.885Z,5.50
2022-11-29T07:04:57.220Z,10.20
2022-11-29T07:07:44.469Z,9.40
2022-11-29T07:10:32.622Z,10.90
2022-11-29T07:13:19.909Z,11.30
2022-11-29T07:16:16.849Z,11.30
2022-11-29T07:19:13.398Z,11.20
2022-11-29T07:22:11.071Z,12.00
2022-11-29T07:25:27.051Z,11.00
2022-11-29T07:28:49.956Z,12.50
2022-11-29T07:32:10.712Z,9.70
2022-11-29T07:35:33.364Z,4.80
2022-11-29T07:38:19.659Z,6.10
2022-11-29T07:41:10.646Z,9.50
2022-11-29T07:44:16.117Z,11.90
2022-11-29T07:47:02.901Z,12.30
2022-11-29T07:49:49.637Z,12.10
2022-11-29T07:52:36.766Z,10.00
2022-11-29T07:55:25.698Z,7.90
2022-11-29T07:58:13.038Z,10.10
2022-11-29T08:00:59.681Z,6.10
2022-11-29T08:03:46.255Z,10.20
2022-11-29T08:06:32.825Z,4.50
2022-11-29T08:09:19.295Z,11.50
2022-11-29T08:12:06.112Z,7.40
2022-11-29T08:14:52.879Z,10.80
2022-11-29T08:17:39.335Z,8.50
2022-11-29T08:20:26.229Z,8.90
2022-11-29T08:23:12.846Z,5.60
2022-11-29T08:26:01.036Z,12.30
2022-11-29T08:28:52.214Z,11.30
2022-11-29T08:31:39.096Z,7.20
2022-11-29T08:34:26.188Z,10.10
2022-11-29T08:37:12.990Z,10.10
2022-11-29T08:40:00.040Z,12.60
2022-11-29T08:42:46.511Z,11.50
2022-11-29T08:45:33.030Z,11.80
2022-11-29T08:48:19.829Z,11.80
2022-11-29T08:51:06.389Z,7.30
2022-11-29T08:53:52.976Z,9.00
2022-11-29T08:59:46.327Z,9.10
2022-11-29T09:02:33.121Z,9.70
2022-11-29T09:05:19.922Z,8.10
2022-11-29T09:08:06.547Z,10.50
2022-11-29T09:10:53.499Z,8.30
2022-11-29T09:13:45.192Z,8.40
2022-11-29T09:16:34.442Z,10.90
2022-11-29T09:19:20.855Z,11.60
2022-11-29T09:22:07.768Z,12.10
2022-11-29T09:24:54.577Z,12.70
2022-11-29T09:27:41.909Z,7.70
2022-11-29T09:30:32.173Z,11.30
2022-11-29T09:33:19.212Z,9.40
2022-11-29T09:36:10.016Z,10.20
2022-11-29T09:39:00.818Z,10.40
2022-11-29T09:42:19.583Z,11.60
2022-11-29T09:45:18.413Z,9.70
2022-11-29T09:48:23.606Z,9.00
2022-11-29T09:51:18.515Z,11.50
2022-11-29T09:54:17.428Z,10.60
2022-11-29T09:57:10.428Z,10.30
2022-11-29T09:59:59.094Z,8.10
2022-11-29T10:02:58.493Z,11.40
2022-11-29T10:05:47.627Z,11.30
2022-11-29T10:08:42.031Z,6.80
2022-11-29T10:11:33.535Z,11.10
2022-11-29T10:14:28.604Z,4.00
2022-11-29T10:17:29.787Z,13.10
2022-11-29T10:20:20.548Z,8.50
2022-11-29T10:23:15.452Z,6.30
2022-11-29T10:26:02.322Z,11.90
2022-11-29T10:28:50.042Z,6.60
2022-11-29T10:31:39.236Z,8.90
2022-11-29T10:34:26.174Z,10.80
2022-11-29T10:37:20.412Z,10.20
2022-11-29T10:40:14.709Z,7.40
2022-11-29T10:43:01.772Z,10.70
2022-11-29T10:45:56.353Z,5.80
2022-11-29T10:48:43.166Z,8.30
2022-11-29T10:51:29.772Z,10.70
2022-11-29T10:54:31.636Z,9.60
2022-11-29T10:57:20.492Z,9.50
2022-11-29T11:00:11.669Z,11.00
2022-11-29T11:03:16.748Z,10.00
2022-11-29T11:06:06.578Z,9.50
2022-11-29T11:08:55.597Z,11.60
2022-11-29T11:11:45.267Z,10.50
2022-11-29T11:14:39.454Z,8.20
2022-11-29T11:17:32.878Z,9.80
2022-11-29T11:20:20.963Z,6.20
2022-11-29T11:23:21.174Z,10.90
2022-11-29T11:26:09.509Z,6.80
2022-11-29T11:29:00.601Z,8.10
2022-11-29T11:31:57.078Z,9.60
2022-11-29T11:35:00.004Z,6.20
2022-11-29T11:37:55.632Z,9.70
2022-11-29T11:40:42.184Z,9.60
2022-11-29T11:43:28.796Z,5.10
2022-11-29T11:46:18.084Z,8.30
2022-11-29T11:49:13.057Z,5.60
2022-11-29T11:51:59.772Z,8.40
2022-11-29T11:54:49.720Z,8.10
2022-11-29T11:57:36.466Z,8.90
2022-11-29T12:03:48.901Z,8.80
2022-11-29T12:06:40.248Z,10.70
2022-11-29T12:09:49.654Z,7.80
2022-11-29T12:12:37.277Z,6.90
2022-11-29T12:15:32.997Z,5.20
2022-11-29T12:18:54.173Z,7.60
2022-11-29T12:21:42.480Z,9.80
2022-11-29T12:24:44.339Z,11.30
2022-11-29T12:30:19.074Z,7.80
2022-11-29T12:33:24.620Z,10.40
2022-11-29T12:36:18.707Z,11.40
2022-11-29T12:39:08.122Z,10.00
2022-11-29T12:41:57.772Z,13.10
2022-11-29T12:44:56.236Z,11.70
2022-11-29T12:48:05.266Z,11.10
2022-11-29T12:50:54.843Z,13.10
2022-11-29T12:54:06.519Z,10.90
2022-11-29T12:57:00.211Z,12.00
2022-11-29T13:00:06.178Z,12.10
2022-11-29T13:03:39.143Z,9.20
2022-11-29T13:06:52.291Z,13.20
2022-11-29T13:10:03.786Z,12.60
2022-11-29T13:12:59.343Z,10.80
2022-11-29T13:15:49.770Z,11.60
2022-11-29T13:18:53.906Z,9.60
2022-11-29T13:21:51.640Z,10.00
2022-11-29T13:24:53.230Z,11.70
2022-11-29T13:27:42.406Z,7.30
2022-11-29T13:30:28.831Z,8.50
2022-11-29T13:33:28.142Z,12.70
2022-11-29T13:36:44.301Z,12.40
2022-11-29T13:39:58.279Z,9.90
2022-11-29T13:42:58.158Z,6.40
2022-11-29T13:46:08.972Z,8.50
2022-11-29T13:48:55.741Z,10.80
2022-11-29T13:51:42.559Z,10.60
2022-11-29T13:54:31.140Z,12.00
2022-11-29T13:57:17.921Z,10.60
2022-11-29T14:00:05.644Z,11.20
2022-11-29T14:02:52.629Z,12.10
2022-11-29T14:05:39.678Z,12.80
2022-11-29T14:09:10.856Z,13.20
2022-11-29T14:12:03.170Z,9.90
2022-11-29T14:14:53.253Z,14.30
2022-11-29T14:17:58.091Z,7.90
2022-11-29T14:20:45.374Z,5.10
2022-11-29T14:23:35.077Z,8.70
2022-11-29T14:26:28.285Z,10.70
2022-11-29T14:29:53.863Z,13.70
2022-11-29T14:32:51.825Z,10.90
2022-11-29T14:35:49.919Z,13.00
2022-11-29T14:39:07.350Z,9.40
2022-11-29T14:41:56.565Z,11.00
2022-11-29T14:44:53.768Z,6.60
2022-11-29T14:47:48.599Z,8.50
2022-11-29T14:50:36.758Z,10.80
2022-11-29T14:53:33.947Z,7.50
2022-11-29T14:56:33.184Z,11.10
2022-11-29T14:59:38.558Z,10.30
2022-11-29T15:02:38.272Z,13.10
2022-11-29T15:05:33.736Z,12.80
2022-11-29T15:08:26.357Z,6.80
2022-11-29T15:11:29.170Z,6.90
2022-11-29T15:14:39.720Z,10.70
2022-11-29T15:17:47.710Z,12.30
2022-11-29T15:20:59.441Z,11.90
2022-11-29T15:23:45.867Z,11.00
2022-11-29T15:26:32.854Z,11.60
2022-11-29T15:29:19.972Z,9.80
2022-11-29T15:32:06.577Z,10.50
2022-11-29T15:34:54.817Z,10.90
2022-11-29T15:37:42.968Z,12.90
2022-11-29T15:40:39.009Z,12.20
2022-11-29T15:43:30.508Z,12.80
2022-11-29T15:46:22.132Z,10.10
2022-11-29T15:49:25.232Z,11.90
2022-11-29T15:52:20.312Z,12.50
2022-11-29T15:55:10.567Z,7.00
2022-11-29T15:57:57.740Z,13.80
2022-11-29T16:00:45.208Z,12.60
2022-11-29T16:03:44.168Z,15.00
2022-11-29T16:06:40.830Z,11.50
2022-11-29T16:09:48.509Z,12.50
2022-11-29T16:12:35.041Z,13.10
2022-11-29T16:15:39.518Z,9.20
2022-11-29T16:18:26.001Z,12.40
2022-11-29T16:21:26.672Z,11.90
2022-11-29T16:24:18.563Z,12.80
2022-11-29T16:27:05.723Z,9.70
2022-11-29T16:29:52.176Z,11.40
2022-11-29T16:32:41.800Z,11.50
2022-11-29T16:35:29.630Z,9.90
2022-11-29T16:38:21.035Z,11.40
2022-11-29T16:41:14.904Z,11.40
2022-11-29T16:44:03.389Z,9.30
2022-11-29T16:46:49.779Z,11.10
2022-11-29T16:49:36.672Z,6.70
2022-11-29T16:52:31.078Z,10.70
2022-11-29T16:55:18.098Z,6.70
2022-11-29T16:58:04.903Z,8.70
2022-11-29T17:00:51.655Z,8.80
2022-11-29T17:03:38.575Z,11.50
2022-11-29T17:06:25.646Z,10.10
2022-11-29T17:09:30.593Z,10.10
2022-11-29T17:12:17.185Z,7.10
2022-11-29T17:15:04.607Z,7.80
2022-11-29T17:17:51.328Z,11.60
2022-11-29T17:20:37.940Z,11.80
2022-11-29T17:23:24.940Z,10.40
2022-11-29T17:26:11.751Z,11.10
2022-11-29T17:28:58.316Z,10.30
2022-11-29T17:31:45.387Z,12.00
2022-11-29T17:34:33.407Z,8.30
2022-11-29T17:37:20.017Z,11.80
2022-11-29T17:40:07.205Z,6.70
2022-11-29T17:42:54.665Z,12.50
2022-11-29T17:45:41.367Z,12.50
2022-11-29T17:48:33.356Z,6.00
2022-11-29T17:51:50.741Z,14.30
2022-11-29T17:54:29.578Z,9.50
2022-11-29T17:57:16.160Z,12.20
2022-11-29T18:00:06.581Z,12.90
2022-11-29T18:02:53.185Z,13.20
2022-11-29T18:05:39.977Z,11.90
2022-11-29T18:08:27.007Z,9.50
2022-11-29T18:11:22.079Z,13.20
2022-11-29T18:14:10.821Z,7.40
2022-11-29T18:16:57.871Z,15.20
2022-11-29T18:19:44.842Z,16.40
2022-11-29T18:22:31.495Z,14.70
2022-11-29T18:25:38.075Z,14.50
2022-11-29T18:28:24.780Z,13.50
2022-11-29T18:31:12.770Z,13.40
2022-11-29T18:34:01.345Z,12.30
2022-11-29T18:36:48.574Z,8.30
2022-11-29T18:39:35.187Z,11.40
2022-11-29T18:42:21.919Z,12.80
2022-11-29T18:45:09.026Z,11.50
2022-11-29T18:47:55.182Z,16.80
2022-11-29T18:50:41.890Z,14.40
2022-11-29T18:53:28.926Z,13.00
2022-11-29T18:56:20.040Z,14.10
2022-11-29T18:59:11.084Z,11.60
2022-11-29T19:01:58.063Z,11.10
2022-11-29T19:04:45.028Z,11.10
2022-11-29T19:07:33.327Z,12.80
2022-11-29T19:10:20.153Z,13.90
2022-11-29T19:13:06.530Z,13.40
2022-11-29T19:15:54.527Z,11.30
2022-11-29T19:18:41.178Z,10.50
2022-11-29T19:21:30.077Z,11.20
2022-11-29T19:24:18.096Z,11.70
2022-11-29T19:27:04.787Z,11.50
2022-11-29T19:29:51.593Z,12.30
2022-11-29T19:32:38.456Z,11.10
2022-11-29T19:35:25.112Z,13.20
2022-11-29T19:38:11.979Z,12.00
2022-11-29T19:40:58.773Z,12.00
2022-11-29T19:43:46.208Z,12.90
2022-11-29T19:46:40.393Z,15.30
2022-11-29T19:49:27.015Z,18.90
2022-11-29T19:52:13.727Z,21.60
2022-11-29T19:55:00.132Z,23.60
2022-11-29T19:57:46.560Z,22.20
2022-11-29T20:00:33.435Z,21.10
2022-11-29T20:03:19.803Z,21.30
2022-11-29T20:06:07.509Z,19.70
2022-11-29T20:08:54.474Z,22.50
2022-11-29T20:11:41.232Z,20.10
2022-11-29T20:14:28.020Z,19.90
2022-11-29T20:17:14.532Z,19.70
2022-11-29T20:20:00.980Z,18.00
2022-11-29T20:22:47.864Z,20.20
2022-11-29T20:25:36.316Z,14.70
2022-11-29T20:28:22.996Z,19.80
2022-11-29T20:31:13.447Z,17.60
2022-11-29T20:34:00.533Z,16.90
2022-11-29T20:36:56.048Z,19.70
2022-11-29T20:39:53.097Z,19.90
2022-11-29T20:43:03.260Z,20.30
2022-11-29T20:45:49.858Z,19.90
2022-11-29T20:48:37.490Z,19.10
2022-11-29T20:51:30.676Z,19.50
2022-11-29T20:54:17.571Z,19.80
2022-11-29T20:57:04.271Z,19.20
2022-11-29T20:59:50.876Z,20.20
2022-11-29T21:02:38.122Z,20.40
2022-11-29T21:05:24.825Z,20.90
2022-11-29T21:08:12.429Z,21.90
2022-11-29T21:11:07.136Z,20.00
2022-11-29T21:13:54.879Z,18.70
2022-11-29T21:16:41.628Z,21.90
2022-11-29T21:19:28.906Z,22.50
2022-11-29T21:22:28.919Z,23.20
2022-11-29T21:25:19.110Z,23.50
2022-11-29T21:28:10.422Z,27.00
2022-11-29T21:30:57.362Z,23.10
2022-11-29T21:33:44.057Z,23.40
2022-11-29T21:36:30.843Z,23.00
2022-11-29T21:39:18.004Z,22.50
2022-11-29T21:42:05.088Z,23.30
2022-11-29T21:44:51.592Z,24.40
2022-11-29T21:47:38.608Z,23.90
2022-11-29T21:50:24.874Z,23.00
2022-11-29T21:53:11.621Z,21.20
2022-11-29T21:55:58.918Z,21.40
2022-11-29T21:58:45.653Z,22.10
2022-11-29T22:01:33.945Z,21.10
2022-11-29T22:04:20.611Z,21.60
2022-11-29T22:07:07.307Z,21.80
2022-11-29T22:09:54.017Z,22.10
2022-11-29T22:12:49.413Z,23.80
2022-11-29T22:15:38.448Z,24.60
2022-11-29T22:18:27.964Z,22.90
2022-11-29T22:21:14.489Z,23.70
2022-11-29T22:24:00.954Z,23.50
2022-11-29T22:26:47.912Z,25.10
2022-11-29T22:29:34.618Z,24.10
2022-11-29T22:32:21.299Z,22.30
2022-11-29T22:35:08.419Z,25.00
2022-11-29T22:37:55.124Z,24.10
2022-11-29T22:40:41.879Z,24.30
2022-11-29T22:43:29.979Z,25.70
2022-11-29T22:46:21.221Z,24.40
2022-11-29T22:49:08.206Z,23.00
2022-11-29T22:51:55.014Z,23.70
2022-11-29T22:54:41.415Z,22.70
2022-11-29T22:57:28.126Z,26.60
2022-11-29T23:00:14.934Z,23.40
2022-11-29T23:03:01.704Z,25.90
2022-11-29T23:05:48.453Z,28.50
2022-11-29T23:08:35.469Z,26.10
2022-11-29T23:11:28.633Z,26.00
2022-11-29T23:14:15.449Z,25.70
2022-11-29T23:17:02.152Z,27.00
2022-11-29T23:19:48.937Z,27.90
2022-11-29T23:22:39.356Z,27.50
2022-11-29T23:25:25.898Z,29.60
2022-11-29T23:28:12.497Z,28.30
2022-11-29T23:30:59.378Z,27.50
2022-11-29T23:33:46.085Z,25.90
2022-11-29T23:36:32.997Z,25.10
2022-11-29T23:39:19.706Z,23.80
2022-11-29T23:42:06.313Z,24.00
2022-11-29T23:44:53.226Z,24.30
2022-11-29T23:47:39.930Z,25.20
2022-11-29T23:50:26.503Z,23.40
2022-11-29T23:53:13.779Z,28.50
2022-11-29T23:56:05.410Z,28.90
2022-11-29T23:58:52.094Z,23.20
